ADDS TAF Board (Experimental) INFO Settings
IDs:

KMCI - Kansas City Intl, MO, US

Issued at 0527 UTC 07 Jul 2015
Updated at: 0653 UTC 07 Jul 2015
Time0649Z 07/07Z 07/08Z 07/09Z 07/10Z 07/11Z 07/12Z 07/13Z 07/14Z 07/15Z 07/16Z 07/17Z 07/18Z 07/19Z
Type OBS PRVL
  [TEMP]  
PRVL PRVL PRVL PRVL PRVL PRVL PRVL PRVL PRVL PRVL PRVL PRVL
VIS 2.5 6
  [4]  
6 5 5 5 >6 >6 >6 >6 >6 >6 >6 >6
CIG 5 11
  [4]  
11 25 25 25 70 70 70 70 70 70 70 70
Cover OVC OVC
  [BKN]  
OVC OVC OVC OVC OVC OVC OVC OVC OVC OVC OVC OVC
FltCat IFR MVFR
  [LIFR]  
MVFR MVFR MVFR MVFR VFR VFR VFR VFR VFR VFR VFR VFR
WX -RA BR -SHRA BR
  [BR]  
-SHRA BR BR BR BR -- -- -- -- -- -- -- --
WDir 360 10
[10]
10 10 10 10 10 10 10 10 10 10 10 10
WSpd 16 9
  [9]  
9 12 12 12 12 12 12 12 12 12 12 12
WGst 24 --
  [--]  
-- -- -- -- 19 19 19 19 19 19 19 19
R01/19
XWnd 4 0 0 1 1 1 1 1 1 1 1 1 1 1
XGst 5 0 -- -- -- -- 1 1 1 1 1 1 1 1
HWnd 16 9 9 12 12 12 12 12 12 12 12 12 12 12
HGst 23 0 -- -- -- -- 19 19 19 19 19 19 19 19
R09/27
XWnd 16 9 9 12 12 12 12 12 12 12 12 12 12 12
XGst 24 0 -- -- -- -- 19 19 19 19 19 19 19 19
HWnd -2 1 1 1 1 1 1 1 1 1 1 1 1 1
HGst -3 0 -- -- -- -- 1 1 1 1 1 1 1 1

NOTE: TEMPO conditions in [brackets]. Keep in mind TEMPO conditions might be better (lower impact) than prevailing conditions.

Raw TAF
KMCI 070527Z 0706/0806 01009KT 6SM -SHRA BR OVC011
  TEMPO 0706/0708 4SM BR BKN004
  FM070900 01012KT 5SM BR OVC025
  FM071200 01012G19KT P6SM OVC070


Raw METAR
KMCI 070649Z 36016G24KT 2 1/2SM -RA BR OVC005 18/17 A2998 RMK AO2 TWR VIS 4 P0003
KMCI 070553Z 01013KT 3SM -RA BR OVC006 19/19 A2996 RMK AO2 TWR VIS 4 SLP135 P0001 60015 T01940189 10228 20194 403170194 51013
KMCI 070511Z 02015G19KT 4SM -RA BR BKN005 BKN009 OVC015 21/20 A2995 RMK AO2 P0001 T02060200
KMCI 070453Z 36014G21KT 2 1/2SM -RA BR BKN005 OVC008 21/21 A2994 RMK AO2 TWR VIS 4 RAB09 SLP129 P0002 T02110206
KMCI 070450Z 36013G17KT 2 1/2SM -RA BR BKN003 OVC008 21/21 A2994 RMK AO2 TWR VIS 4 RAB09 P0001
KMCI 070409Z 01005KT 7SM -RA OVC003 22/22 A2994 RMK AO2 RAB09 P0000 T02220217
KMCI 070401Z 01003KT 10SM OVC003 22/22 A2993 RMK AO2 T02220217
KMCI 070353Z 36004KT 1SM R19R/P6000FT OVC003 22/22 A2992 RMK AO2 SFC VIS 10 DZB06E37 SLP122 P0000 T02170217

METAR Board
Radar Display
Forecast Discussion

TAF Board Legend

Potential Impact
Threat None Slight Moderate High
Visibility (sm) ≥5.1 5.1>X≥3 3>X≥1 <1
Ceiling (100 ft) ≥30.1 30.1>X≥10 10>X≥5 <5
Wind Speed (kt) <10 10≤X<20 20≤X<30 ≥30
Wind Gust (kt) <15 15≤X<25 25≤X<35 ≥35
Weather No Wx Reported VCTS,-TS,-FZRA,SN TS,FZRA +TS,+FZRA,+SN